Time;durP1;ratioP1;P1;durP2;ratioP2;P2;SDS_P1;SDS_P2;PMS_P1;PMS_P2;Temp;Humidity;BMP_temperature;BMP_pressure;BME280_temperature;BME280_humidity;BME280_pressure;Samples;Min_cycle;Max_cycle;Signal;HPM_P1;HPM_P2
2022/03/17 00:00:15;;;;;;;14.38;12.20;;;;;;;;;;5044332;28;20059;-84
2022/03/17 00:02:41;;;;;;;14.75;11.88;;;;;;;;;;5058492;28;20491;-84
2022/03/17 00:05:08;;;;;;;13.18;11.88;;;;;;;;;;5065572;28;20036;-83
2022/03/17 00:07:36;;;;;;;13.40;12.10;;;;;;;;;;5065630;28;20534;-81
2022/03/17 00:10:02;;;;;;;13.93;12.52;;;;;;;;;;5072079;28;20044;-84
2022/03/17 00:12:28;;;;;;;14.20;12.80;;;;;;;;;;5073189;28;20061;-85
2022/03/17 00:14:58;;;;;;;13.60;12.27;;;;;;;;;;5066640;28;20059;-84
2022/03/17 00:17:23;;;;;;;14.68;13.18;;;;;;;;;;5065661;28;20048;-83
2022/03/17 00:19:49;;;;;;;14.73;13.07;;;;;;;;;;5042050;28;20495;-86
2022/03/17 00:22:16;;;;;;;13.75;12.38;;;;;;;;;;5043011;28;20041;-82
2022/03/17 00:24:43;;;;;;;14.70;13.30;;;;;;;;;;5060962;28;20048;-83
2022/03/17 00:27:09;;;;;;;14.55;12.90;;;;;;;;;;5059208;28;20098;-83
2022/03/17 00:29:36;;;;;;;14.60;13.20;;;;;;;;;;5066477;28;20055;-82
2022/03/17 00:32:03;;;;;;;14.77;13.38;;;;;;;;;;5060444;28;20040;-84
2022/03/17 00:35:35;;;;;;;14.73;13.23;;;;;;;;;;5061115;28;20044;-84
2022/03/17 00:37:25;;;;;;;15.00;13.55;;;;;;;;;;5066273;28;20402;-83
2022/03/17 00:39:52;;;;;;;14.82;13.23;;;;;;;;;;5049181;28;20399;-83
2022/03/17 00:42:18;;;;;;;15.65;14.05;;;;;;;;;;5059600;28;20067;-83
2022/03/17 00:44:44;;;;;;;15.20;13.73;;;;;;;;;;5065546;28;20053;-83
2022/03/17 00:47:10;;;;;;;16.00;14.35;;;;;;;;;;5060272;28;20044;-83
2022/03/17 00:49:36;;;;;;;14.73;13.25;;;;;;;;;;5047484;28;20053;-83
2022/03/17 00:52:02;;;;;;;15.93;14.32;;;;;;;;;;5045060;28;20041;-83
2022/03/17 00:54:28;;;;;;;15.95;14.43;;;;;;;;;;5064975;28;20629;-84
2022/03/17 00:56:54;;;;;;;16.45;14.88;;;;;;;;;;5050565;28;20104;-83
2022/03/17 00:59:20;;;;;;;15.77;14.27;;;;;;;;;;5062771;28;20083;-83
2022/03/17 01:01:46;;;;;;;16.33;14.73;;;;;;;;;;5060717;28;20137;-83
2022/03/17 01:04:12;;;;;;;16.52;14.93;;;;;;;;;;5061559;28;20060;-83
2022/03/17 01:06:38;;;;;;;17.02;15.38;;;;;;;;;;5047196;28;20036;-83
2022/03/17 01:09:04;;;;;;;17.17;15.48;;;;;;;;;;5045135;28;20061;-83
2022/03/17 01:11:30;;;;;;;16.83;15.13;;;;;;;;;;5047976;28;20044;-84
2022/03/17 01:13:56;;;;;;;16.38;14.80;;;;;;;;;;5065325;28;20383;-83
2022/03/17 01:16:22;;;;;;;16.50;14.82;;;;;;;;;;5062186;28;20040;-84
2022/03/17 01:18:48;;;;;;;17.77;16.08;;;;;;;;;;5065100;28;20051;-84
2022/03/17 01:21:14;;;;;;;17.02;15.43;;;;;;;;;;5064820;28;20044;-84
2022/03/17 01:23:40;;;;;;;18.17;16.45;;;;;;;;;;5048718;28;20060;-84
2022/03/17 01:26:06;;;;;;;18.08;16.17;;;;;;;;;;5042458;28;20461;-84
2022/03/17 01:28:32;;;;;;;18.20;16.40;;;;;;;;;;5042483;28;20055;-84
2022/03/17 01:30:58;;;;;;;17.92;16.13;;;;;;;;;;5063771;28;20408;-84
2022/03/17 01:33:24;;;;;;;18.13;16.42;;;;;;;;;;5064850;28;20037;-84
2022/03/17 01:35:50;;;;;;;18.60;16.80;;;;;;;;;;5062039;28;20044;-84
2022/03/17 01:38:16;;;;;;;18.85;16.85;;;;;;;;;;5045839;28;20110;-84
2022/03/17 01:40:43;;;;;;;19.05;17.00;;;;;;;;;;5045950;28;20068;-84
2022/03/17 01:43:09;;;;;;;19.25;16.88;;;;;;;;;;5063804;28;20045;-83
2022/03/17 01:45:35;;;;;;;19.50;17.60;;;;;;;;;;5063553;28;20036;-84
2022/03/17 01:48:01;;;;;;;18.85;17.05;;;;;;;;;;5062164;28;20036;-84
2022/03/17 01:50:28;;;;;;;19.67;17.77;;;;;;;;;;5061559;28;20054;-84
2022/03/17 01:52:54;;;;;;;19.83;17.92;;;;;;;;;;5067622;28;20662;-85
2022/03/17 01:55:21;;;;;;;20.08;18.13;;;;;;;;;;5066556;28;20124;-84
2022/03/17 01:57:48;;;;;;;20.27;18.33;;;;;;;;;;5068521;28;20041;-84
2022/03/17 02:00:17;;;;;;;19.75;17.73;;;;;;;;;;5052816;28;20337;-83
2022/03/17 02:02:45;;;;;;;19.50;17.60;;;;;;;;;;5052336;28;20063;-85
2022/03/17 02:05:14;;;;;;;19.88;17.77;;;;;;;;;;5069741;28;20144;-82
2022/03/17 02:07:47;;;;;;;19.88;17.88;;;;;;;;;;5051191;28;20380;-84
2022/03/17 02:10:13;;;;;;;19.00;17.00;;;;;;;;;;5070613;28;20037;-84
2022/03/17 02:15:26;;;;;;;19.23;17.23;;;;;;;;;;5060550;28;20500;-84
2022/03/17 02:17:52;;;;;;;19.85;17.88;;;;;;;;;;5061123;28;20048;-84
2022/03/17 02:20:18;;;;;;;20.15;18.05;;;;;;;;;;5064335;28;20492;-85
2022/03/17 02:22:47;;;;;;;20.77;18.67;;;;;;;;;;5069423;28;20384;-85
2022/03/17 02:27:59;;;;;;;21.15;19.05;;;;;;;;;;5064774;28;20476;-85
2022/03/17 02:30:25;;;;;;;22.00;19.80;;;;;;;;;;5068098;28;20590;-84
2022/03/17 02:32:59;;;;;;;20.25;18.20;;;;;;;;;;5065257;28;20044;-85
2022/03/17 02:35:25;;;;;;;20.45;18.40;;;;;;;;;;5066178;28;20701;-83
2022/03/17 02:37:51;;;;;;;21.35;19.15;;;;;;;;;;5062732;28;20129;-84
2022/03/17 02:40:17;;;;;;;20.58;18.48;;;;;;;;;;5047925;28;20041;-85
2022/03/17 02:42:43;;;;;;;20.02;18.13;;;;;;;;;;5069439;28;20482;-84
2022/03/17 02:45:12;;;;;;;20.40;18.33;;;;;;;;;;5055152;28;20044;-85
2022/03/17 02:47:40;;;;;;;19.48;17.48;;;;;;;;;;5066655;28;20045;-84
2022/03/17 02:50:07;;;;;;;20.90;18.73;;;;;;;;;;5050242;28;20150;-84
2022/03/17 02:52:33;;;;;;;21.02;18.83;;;;;;;;;;5069469;28;20036;-86
2022/03/17 02:54:59;;;;;;;21.85;19.52;;;;;;;;;;5069068;28;20055;-85
2022/03/17 02:57:25;;;;;;;20.58;18.30;;;;;;;;;;5066986;28;20039;-85
2022/03/17 02:59:52;;;;;;;18.55;16.67;;;;;;;;;;5046597;28;20055;-85
2022/03/17 03:02:18;;;;;;;21.48;19.15;;;;;;;;;;5059922;28;20503;-85
2022/03/17 03:04:44;;;;;;;21.92;19.02;;;;;;;;;;5068812;28;20446;-85
2022/03/17 03:07:10;;;;;;;21.33;19.02;;;;;;;;;;5061626;28;20088;-85
2022/03/17 03:09:36;;;;;;;20.10;17.95;;;;;;;;;;5063276;28;20510;-85
2022/03/17 03:12:03;;;;;;;23.40;20.45;;;;;;;;;;5066456;28;20072;-84
2022/03/17 03:14:32;;;;;;;20.85;16.27;;;;;;;;;;5065457;28;20070;-85
2022/03/17 03:16:58;;;;;;;22.23;19.90;;;;;;;;;;5049805;28;20084;-84
2022/03/17 03:19:24;;;;;;;23.13;20.20;;;;;;;;;;5044769;28;20098;-85
2022/03/17 03:21:50;;;;;;;25.10;20.77;;;;;;;;;;5050780;28;20052;-85
2022/03/17 03:24:16;;;;;;;21.10;18.70;;;;;;;;;;5049239;28;20109;-85
2022/03/17 03:26:42;;;;;;;22.55;19.35;;;;;;;;;;5067334;28;20056;-83
2022/03/17 03:31:48;;;;;;;15.77;13.20;;;;;;;;;;5062892;28;20487;-86
2022/03/17 03:34:14;;;;;;;13.60;9.85;;;;;;;;;;5076236;28;20181;-87
2022/03/17 03:39:24;;;;;;;10.90;7.68;;;;;;;;;;5050126;28;20055;-86
2022/03/17 03:41:50;;;;;;;8.20;6.57;;;;;;;;;;5045489;28;20055;-85
2022/03/17 03:44:17;;;;;;;7.55;6.50;;;;;;;;;;5067597;28;20148;-86
2022/03/17 03:46:43;;;;;;;9.27;6.75;;;;;;;;;;5063857;28;20043;-85
2022/03/17 03:49:12;;;;;;;7.07;6.20;;;;;;;;;;5040452;28;20055;-84
2022/03/17 03:51:38;;;;;;;10.27;6.43;;;;;;;;;;5064929;28;20082;-85
2022/03/17 03:54:17;;;;;;;9.13;5.88;;;;;;;;;;5051169;28;20076;-85
2022/03/17 03:56:47;;;;;;;7.47;5.20;;;;;;;;;;5065884;28;20032;-84
2022/03/17 03:59:15;;;;;;;8.07;5.07;;;;;;;;;;5047323;28;20055;-85
2022/03/17 04:01:42;;;;;;;9.15;5.10;;;;;;;;;;5053283;28;20098;-85
2022/03/17 04:04:08;;;;;;;8.93;4.95;;;;;;;;;;5047629;28;20048;-83
2022/03/17 04:06:40;;;;;;;7.35;4.68;;;;;;;;;;5047136;28;20120;-83
2022/03/17 04:09:06;;;;;;;8.10;4.95;;;;;;;;;;5049107;28;20407;-84
2022/03/17 04:11:32;;;;;;;8.48;4.95;;;;;;;;;;5066865;28;20079;-85
2022/03/17 04:13:58;;;;;;;9.02;5.50;;;;;;;;;;5062612;28;20090;-85
2022/03/17 04:16:24;;;;;;;9.55;5.45;;;;;;;;;;5062383;28;20040;-85
2022/03/17 04:18:53;;;;;;;12.50;7.03;;;;;;;;;;5065825;28;20115;-85
2022/03/17 04:21:19;;;;;;;12.02;7.03;;;;;;;;;;5054429;28;20068;-84
2022/03/17 04:23:45;;;;;;;14.20;7.10;;;;;;;;;;5066195;28;20055;-85
2022/03/17 04:26:11;;;;;;;16.95;8.18;;;;;;;;;;5040799;28;20044;-85
2022/03/17 04:28:37;;;;;;;16.40;9.00;;;;;;;;;;5044676;28;20048;-84
2022/03/17 04:31:04;;;;;;;16.15;8.00;;;;;;;;;;5049856;28;20407;-85
2022/03/17 04:33:30;;;;;;;11.82;6.75;;;;;;;;;;5049263;28;20044;-86
2022/03/17 04:35:56;;;;;;;15.80;7.55;;;;;;;;;;5045623;28;20113;-87
2022/03/17 04:38:22;;;;;;;12.88;6.47;;;;;;;;;;5069264;28;20033;-86
2022/03/17 04:40:49;;;;;;;12.98;5.03;;;;;;;;;;5060161;28;20115;-85
2022/03/17 04:43:18;;;;;;;9.00;4.15;;;;;;;;;;5045743;28;20461;-85
2022/03/17 04:45:46;;;;;;;10.82;3.58;;;;;;;;;;5062775;28;20041;-85
2022/03/17 04:48:12;;;;;;;8.32;2.97;;;;;;;;;;5064145;28;20175;-86
2022/03/17 04:50:38;;;;;;;9.82;3.67;;;;;;;;;;5064186;28;20048;-85
2022/03/17 04:55:49;;;;;;;11.70;3.13;;;;;;;;;;5059356;28;20055;-84
2022/03/17 04:58:15;;;;;;;10.88;3.50;;;;;;;;;;5049369;28;20045;-85
2022/03/17 05:00:41;;;;;;;7.30;3.45;;;;;;;;;;5046342;28;20052;-84
2022/03/17 05:03:08;;;;;;;8.02;3.58;;;;;;;;;;5065457;28;20067;-86
2022/03/17 05:05:35;;;;;;;9.48;3.05;;;;;;;;;;5047017;28;20040;-84
2022/03/17 05:08:01;;;;;;;11.88;3.47;;;;;;;;;;5063496;28;20041;-85
2022/03/17 05:10:28;;;;;;;8.00;3.28;;;;;;;;;;5048482;28;20105;-86
2022/03/17 05:12:55;;;;;;;10.23;3.17;;;;;;;;;;5045786;28;20060;-85
2022/03/17 05:15:21;;;;;;;12.98;3.85;;;;;;;;;;5061211;28;20098;-86
2022/03/17 05:17:47;;;;;;;7.88;2.92;;;;;;;;;;5048983;28;20059;-84
2022/03/17 05:20:14;;;;;;;6.88;3.45;;;;;;;;;;5045796;28;20574;-85
2022/03/17 05:22:41;;;;;;;11.15;2.90;;;;;;;;;;5044394;28;20048;-85
2022/03/17 05:25:08;;;;;;;9.95;3.05;;;;;;;;;;5068481;28;20047;-85
2022/03/17 05:27:52;;;;;;;11.18;2.90;;;;;;;;;;5063817;28;20052;-84
2022/03/17 05:30:19;;;;;;;8.85;2.92;;;;;;;;;;5046685;28;20044;-85
2022/03/17 05:32:45;;;;;;;8.32;2.67;;;;;;;;;;5049962;28;20048;-84
2022/03/17 05:35:12;;;;;;;13.15;2.97;;;;;;;;;;5067610;28;20102;-85
2022/03/17 05:37:39;;;;;;;10.55;2.88;;;;;;;;;;5064578;28;20395;-87
2022/03/17 05:40:15;;;;;;;12.07;2.85;;;;;;;;;;5067400;28;20051;-86
2022/03/17 05:42:55;;;;;;;7.50;2.70;;;;;;;;;;5065057;28;20168;-85
2022/03/17 05:45:21;;;;;;;8.82;3.00;;;;;;;;;;5048014;28;20157;-85
2022/03/17 05:47:51;;;;;;;7.47;2.60;;;;;;;;;;5064924;28;20172;-84
2022/03/17 05:50:20;;;;;;;7.68;2.80;;;;;;;;;;5065007;28;20037;-85
2022/03/17 05:52:46;;;;;;;7.80;2.60;;;;;;;;;;5068588;28;20040;-85
2022/03/17 05:55:20;;;;;;;7.63;2.60;;;;;;;;;;5061804;28;20044;-84
2022/03/17 05:57:47;;;;;;;12.18;2.50;;;;;;;;;;5046333;28;20446;-85
2022/03/17 06:00:14;;;;;;;7.65;2.40;;;;;;;;;;5046789;28;20057;-84
2022/03/17 06:02:42;;;;;;;11.73;2.80;;;;;;;;;;5064790;28;20029;-84
2022/03/17 06:05:08;;;;;;;8.13;2.65;;;;;;;;;;5053399;28;20045;-84
2022/03/17 06:07:41;;;;;;;9.88;2.50;;;;;;;;;;5046391;28;20041;-85
2022/03/17 06:10:09;;;;;;;9.00;2.70;;;;;;;;;;5067907;28;20097;-84
2022/03/17 06:12:35;;;;;;;11.52;3.00;;;;;;;;;;5066094;28;20555;-85
2022/03/17 06:15:02;;;;;;;11.27;2.67;;;;;;;;;;5062535;28;20178;-86
2022/03/17 06:17:44;;;;;;;7.78;2.75;;;;;;;;;;5067671;28;20056;-84
2022/03/17 06:20:12;;;;;;;10.55;2.75;;;;;;;;;;5046684;28;20041;-88
2022/03/17 06:22:39;;;;;;;9.48;3.10;;;;;;;;;;5072422;28;20040;-86
2022/03/17 06:25:05;;;;;;;10.32;2.85;;;;;;;;;;5077811;28;20060;-85
2022/03/17 06:27:31;;;;;;;10.65;2.67;;;;;;;;;;5071052;28;20072;-88
2022/03/17 06:29:57;;;;;;;9.68;2.63;;;;;;;;;;5067617;28;20089;-87
2022/03/17 06:32:26;;;;;;;11.82;2.35;;;;;;;;;;5082591;28;20044;-86
2022/03/17 06:34:52;;;;;;;8.07;2.58;;;;;;;;;;5056221;28;20108;-85
2022/03/17 06:37:18;;;;;;;11.27;2.85;;;;;;;;;;5082086;28;20037;-83
2022/03/17 06:39:44;;;;;;;11.50;3.08;;;;;;;;;;5072610;28;20041;-84
2022/03/17 06:42:10;;;;;;;7.90;2.88;;;;;;;;;;5063569;28;20100;-84
2022/03/17 06:44:36;;;;;;;11.48;2.83;;;;;;;;;;5048923;28;20094;-85
2022/03/17 06:47:02;;;;;;;11.63;2.90;;;;;;;;;;5065355;28;20787;-84
2022/03/17 06:49:28;;;;;;;11.77;3.00;;;;;;;;;;5069651;28;20117;-84
2022/03/17 06:51:55;;;;;;;9.68;2.72;;;;;;;;;;5047475;28;20465;-83
2022/03/17 06:54:22;;;;;;;9.98;3.28;;;;;;;;;;5065392;28;20102;-85
2022/03/17 06:56:48;;;;;;;11.63;3.15;;;;;;;;;;5046753;28;20037;-71
2022/03/17 06:59:13;;;;;;;14.75;3.65;;;;;;;;;;5068712;28;20044;-83
2022/03/17 07:01:39;;;;;;;12.02;3.20;;;;;;;;;;5048710;28;20040;-83
2022/03/17 07:04:05;;;;;;;14.82;3.75;;;;;;;;;;5064511;28;20140;-84
2022/03/17 07:06:31;;;;;;;9.90;3.00;;;;;;;;;;5070618;28;20396;-84
2022/03/17 07:08:57;;;;;;;13.02;3.85;;;;;;;;;;5067657;28;20047;-83
2022/03/17 07:11:23;;;;;;;13.60;3.45;;;;;;;;;;5066040;28;20055;-85
2022/03/17 07:13:49;;;;;;;9.80;3.15;;;;;;;;;;5052855;28;20080;-84
2022/03/17 07:16:18;;;;;;;10.85;3.35;;;;;;;;;;5067133;28;20052;-84
2022/03/17 07:18:44;;;;;;;11.70;3.42;;;;;;;;;;5065104;28;20231;-84
2022/03/17 07:21:10;;;;;;;12.20;3.17;;;;;;;;;;5043607;28;20060;-84
2022/03/17 07:23:36;;;;;;;10.48;3.00;;;;;;;;;;5050378;28;20051;-85
2022/03/17 07:26:05;;;;;;;12.77;4.05;;;;;;;;;;5070719;28;20125;-84
2022/03/17 07:28:31;;;;;;;12.77;2.95;;;;;;;;;;5048180;28;20439;-84
2022/03/17 07:30:57;;;;;;;11.02;3.22;;;;;;;;;;5041286;28;20497;-85
2022/03/17 07:33:23;;;;;;;11.27;3.10;;;;;;;;;;5046452;28;20033;-84
2022/03/17 07:35:49;;;;;;;13.57;3.88;;;;;;;;;;5066563;28;20076;-84
2022/03/17 07:38:16;;;;;;;11.82;3.83;;;;;;;;;;5044552;28;20512;-84
2022/03/17 07:40:43;;;;;;;11.68;3.53;;;;;;;;;;5065523;28;20049;-83
2022/03/17 07:43:09;;;;;;;12.02;3.45;;;;;;;;;;5065517;28;20094;-84
2022/03/17 07:45:35;;;;;;;8.60;3.50;;;;;;;;;;5048257;28;20475;-83
2022/03/17 07:48:01;;;;;;;8.25;3.13;;;;;;;;;;5064259;28;20041;-83
2022/03/17 07:50:27;;;;;;;9.00;3.08;;;;;;;;;;5063018;28;20052;-84
2022/03/17 07:52:53;;;;;;;9.70;3.78;;;;;;;;;;5042100;28;20515;-84
2022/03/17 07:55:20;;;;;;;10.82;3.35;;;;;;;;;;5045779;28;20037;-84
2022/03/17 07:57:46;;;;;;;18.10;3.08;;;;;;;;;;5064749;28;20233;-84
2022/03/17 08:00:15;;;;;;;11.88;3.10;;;;;;;;;;5049859;28;20075;-85
2022/03/17 08:02:41;;;;;;;11.45;2.97;;;;;;;;;;5049066;28;20403;-85
2022/03/17 08:05:08;;;;;;;10.70;3.20;;;;;;;;;;5047899;28;20097;-84
2022/03/17 08:07:37;;;;;;;12.30;3.05;;;;;;;;;;5062523;28;20052;-84
2022/03/17 08:10:03;;;;;;;12.05;3.28;;;;;;;;;;5051443;28;20044;-84
2022/03/17 08:12:30;;;;;;;12.98;3.30;;;;;;;;;;5066426;28;21646;-84
2022/03/17 08:14:56;;;;;;;16.13;2.92;;;;;;;;;;5066055;28;20037;-84
2022/03/17 08:17:22;;;;;;;12.18;3.45;;;;;;;;;;5066904;28;20040;-85
2022/03/17 08:19:48;;;;;;;12.27;3.40;;;;;;;;;;5045737;28;20385;-86
2022/03/17 08:22:14;;;;;;;10.73;3.10;;;;;;;;;;5048994;28;20563;-85
2022/03/17 08:24:41;;;;;;;12.73;3.10;;;;;;;;;;5066962;28;20049;-85
2022/03/17 08:27:09;;;;;;;10.48;3.00;;;;;;;;;;5047860;28;20048;-84
2022/03/17 08:29:38;;;;;;;11.52;2.55;;;;;;;;;;5063570;28;20511;-84
2022/03/17 08:32:05;;;;;;;9.88;2.70;;;;;;;;;;5065676;28;20048;-86
2022/03/17 08:34:32;;;;;;;13.07;2.90;;;;;;;;;;5065289;28;20043;-85
2022/03/17 08:36:59;;;;;;;11.18;2.95;;;;;;;;;;5045651;28;20049;-86
2022/03/17 08:39:25;;;;;;;11.45;3.00;;;;;;;;;;5037803;28;20185;-85
2022/03/17 08:41:52;;;;;;;11.32;2.83;;;;;;;;;;5070603;28;20481;-85
2022/03/17 08:44:18;;;;;;;9.32;2.90;;;;;;;;;;5070763;28;20048;-85
2022/03/17 08:49:29;;;;;;;7.07;2.40;;;;;;;;;;5047820;28;20048;-85
2022/03/17 08:51:57;;;;;;;8.45;2.83;;;;;;;;;;5080025;28;20381;-85
2022/03/17 08:54:25;;;;;;;10.35;2.65;;;;;;;;;;5071321;28;20123;-85
2022/03/17 08:57:01;;;;;;;10.48;2.83;;;;;;;;;;5034461;28;20041;-85
2022/03/17 08:59:29;;;;;;;14.63;3.13;;;;;;;;;;5041623;28;20125;-84
2022/03/17 09:01:55;;;;;;;8.13;2.85;;;;;;;;;;5051038;28;20510;-85
2022/03/17 09:04:21;;;;;;;11.77;3.10;;;;;;;;;;5052996;28;20041;-84
2022/03/17 09:06:47;;;;;;;18.13;4.22;;;;;;;;;;5069365;28;20052;-84
2022/03/17 09:09:13;;;;;;;10.02;3.05;;;;;;;;;;5058342;28;20442;-85
2022/03/17 09:11:39;;;;;;;11.60;3.53;;;;;;;;;;5056615;28;20549;-84
2022/03/17 09:14:07;;;;;;;9.93;3.13;;;;;;;;;;5038118;28;20452;-84
2022/03/17 09:16:33;;;;;;;13.52;3.05;;;;;;;;;;5070395;28;20101;-85
2022/03/17 09:19:04;;;;;;;9.70;2.85;;;;;;;;;;5075371;28;20115;-85
2022/03/17 09:21:31;;;;;;;10.90;3.00;;;;;;;;;;5062245;28;20045;-85
2022/03/17 09:23:58;;;;;;;10.98;3.10;;;;;;;;;;5055567;28;20048;-85
2022/03/17 09:26:26;;;;;;;10.02;3.10;;;;;;;;;;5044737;28;20072;-86
2022/03/17 09:28:52;;;;;;;11.98;3.10;;;;;;;;;;5053282;28;20052;-84
2022/03/17 09:31:19;;;;;;;12.45;3.42;;;;;;;;;;5064545;28;20033;-84
2022/03/17 09:33:45;;;;;;;10.10;2.85;;;;;;;;;;5070272;28;20040;-85
2022/03/17 09:36:11;;;;;;;8.98;3.35;;;;;;;;;;5038249;28;20075;-85
2022/03/17 09:38:38;;;;;;;9.13;2.72;;;;;;;;;;5069752;28;20037;-85
2022/03/17 09:41:23;;;;;;;9.43;2.78;;;;;;;;;;5055783;28;20123;-85
2022/03/17 09:43:49;;;;;;;11.25;3.50;;;;;;;;;;5054853;28;20166;-85
2022/03/17 09:46:17;;;;;;;10.38;3.38;;;;;;;;;;5039292;28;20037;-85
2022/03/17 09:48:44;;;;;;;9.77;2.88;;;;;;;;;;5073420;28;20511;-85
2022/03/17 09:51:11;;;;;;;11.05;2.90;;;;;;;;;;5054581;28;20783;-85
2022/03/17 09:53:37;;;;;;;10.70;2.97;;;;;;;;;;5037104;28;20056;-85
2022/03/17 09:56:03;;;;;;;8.30;3.20;;;;;;;;;;5060852;28;20040;-86
2022/03/17 09:58:29;;;;;;;10.55;3.67;;;;;;;;;;5054573;28;20044;-84
2022/03/17 10:00:55;;;;;;;8.77;3.08;;;;;;;;;;5062032;28;20052;-86
2022/03/17 10:03:25;;;;;;;8.13;2.70;;;;;;;;;;5055003;28;20127;-85
2022/03/17 10:05:52;;;;;;;13.98;3.17;;;;;;;;;;5055131;28;20127;-84
2022/03/17 10:08:20;;;;;;;13.65;3.25;;;;;;;;;;5074857;28;20036;-85
2022/03/17 10:10:46;;;;;;;9.02;3.30;;;;;;;;;;5065472;28;20056;-84
2022/03/17 10:13:13;;;;;;;9.82;3.13;;;;;;;;;;5054225;28;20062;-85
2022/03/17 10:15:39;;;;;;;9.68;2.70;;;;;;;;;;5054839;28;20472;-84
2022/03/17 10:18:25;;;;;;;9.65;3.65;;;;;;;;;;5072983;28;20090;-81
2022/03/17 10:21:10;;;;;;;8.95;3.10;;;;;;;;;;5075047;28;20055;-85
2022/03/17 10:23:59;;;;;;;10.80;3.13;;;;;;;;;;5041387;28;20511;-85
2022/03/17 10:27:03;;;;;;;10.30;3.10;;;;;;;;;;5058003;28;20480;-85
2022/03/17 10:29:29;;;;;;;10.18;3.00;;;;;;;;;;4996016;28;20108;-84
2022/03/17 10:32:05;;;;;;;10.55;3.08;;;;;;;;;;5040754;28;20053;-84
2022/03/17 10:34:51;;;;;;;10.02;2.88;;;;;;;;;;5054354;28;20508;-84
2022/03/17 10:37:22;;;;;;;10.50;3.35;;;;;;;;;;5059115;28;20504;-85
2022/03/17 10:39:50;;;;;;;8.25;3.00;;;;;;;;;;5055987;28;20041;-85
2022/03/17 10:42:17;;;;;;;7.97;2.97;;;;;;;;;;5072255;28;20051;-85
2022/03/17 10:44:50;;;;;;;9.52;3.55;;;;;;;;;;5056054;28;20483;-84
2022/03/17 10:47:23;;;;;;;9.52;2.97;;;;;;;;;;5049778;28;20048;-84
2022/03/17 10:50:04;;;;;;;9.02;3.45;;;;;;;;;;5074273;28;20083;-85
2022/03/17 10:52:50;;;;;;;8.73;3.53;;;;;;;;;;5066287;28;20049;-84
2022/03/17 10:55:28;;;;;;;9.90;3.35;;;;;;;;;;5073858;28;20395;-85
2022/03/17 10:58:13;;;;;;;11.18;3.58;;;;;;;;;;5077483;28;20377;-85
2022/03/17 11:00:56;;;;;;;8.75;3.22;;;;;;;;;;5073885;28;20426;-85
2022/03/17 11:03:23;;;;;;;8.30;3.05;;;;;;;;;;5057451;28;20059;-84
2022/03/17 11:05:50;;;;;;;14.48;3.17;;;;;;;;;;5069843;28;20098;-84
2022/03/17 11:08:17;;;;;;;12.60;2.63;;;;;;;;;;5072704;28;20056;-85
2022/03/17 11:10:42;;;;;;;12.18;3.75;;;;;;;;;;5072446;28;20044;-84
2022/03/17 11:13:09;;;;;;;8.55;2.83;;;;;;;;;;5061801;28;20493;-84
2022/03/17 11:15:38;;;;;;;9.98;3.10;;;;;;;;;;5037959;28;20530;-84
2022/03/17 11:18:08;;;;;;;9.88;3.20;;;;;;;;;;5035912;28;20041;-84
2022/03/17 11:20:35;;;;;;;12.32;3.22;;;;;;;;;;5035985;28;20045;-85
2022/03/17 11:23:21;;;;;;;11.23;3.97;;;;;;;;;;5036089;28;20037;-85
2022/03/17 11:25:51;;;;;;;13.95;3.50;;;;;;;;;;5054557;28;20045;-84
2022/03/17 11:28:20;;;;;;;12.85;3.63;;;;;;;;;;5044958;28;20047;-84
2022/03/17 11:30:59;;;;;;;9.90;3.25;;;;;;;;;;5034800;28;20068;-84
2022/03/17 11:33:39;;;;;;;13.32;3.30;;;;;;;;;;5062413;28;20044;-85
2022/03/17 11:36:08;;;;;;;8.38;2.80;;;;;;;;;;5044999;28;20091;-85
2022/03/17 11:38:38;;;;;;;11.55;3.15;;;;;;;;;;5057177;28;20045;-85
2022/03/17 11:41:17;;;;;;;8.63;2.95;;;;;;;;;;5072827;28;20594;-85
2022/03/17 11:43:46;;;;;;;10.95;2.78;;;;;;;;;;5055292;28;20071;-84
2022/03/17 11:46:18;;;;;;;12.25;3.05;;;;;;;;;;5073287;28;20064;-84
2022/03/17 11:48:44;;;;;;;11.05;3.00;;;;;;;;;;5061871;28;20186;-85
2022/03/17 11:51:11;;;;;;;7.65;2.55;;;;;;;;;;5041022;28;20093;-84
2022/03/17 11:53:39;;;;;;;10.70;2.95;;;;;;;;;;5068724;28;20477;-85
2022/03/17 11:56:05;;;;;;;9.20;2.80;;;;;;;;;;5053436;28;20388;-85
2022/03/17 11:58:39;;;;;;;5.57;2.38;;;;;;;;;;5072318;28;20090;-85
2022/03/17 12:01:25;;;;;;;11.05;3.05;;;;;;;;;;5072280;28;20129;-85
2022/03/17 12:03:53;;;;;;;10.15;2.85;;;;;;;;;;5052912;28;20056;-85
2022/03/17 12:06:21;;;;;;;10.15;3.05;;;;;;;;;;5052343;28;20508;-85
2022/03/17 12:08:47;;;;;;;7.75;2.35;;;;;;;;;;5063665;28;20295;-85
2022/03/17 12:11:14;;;;;;;9.85;2.50;;;;;;;;;;5061150;28;20532;-85
2022/03/17 12:14:04;;;;;;;9.85;2.67;;;;;;;;;;5066432;28;20056;-85
2022/03/17 12:16:40;;;;;;;9.65;2.38;;;;;;;;;;5071378;28;20068;-85
2022/03/17 12:19:07;;;;;;;10.05;2.60;;;;;;;;;;5071877;28;20051;-85
2022/03/17 12:21:54;;;;;;;10.70;2.90;;;;;;;;;;5059464;28;20041;-85
2022/03/17 12:24:35;;;;;;;17.77;3.00;;;;;;;;;;5072380;28;20374;-85
2022/03/17 12:27:20;;;;;;;9.00;2.85;;;;;;;;;;5055127;28;20045;-85
2022/03/17 12:29:48;;;;;;;7.70;2.60;;;;;;;;;;5037043;28;20064;-85
2022/03/17 12:32:19;;;;;;;8.68;2.40;;;;;;;;;;5071451;28;20159;-86
2022/03/17 12:34:49;;;;;;;8.48;2.63;;;;;;;;;;5066489;28;20055;-86
2022/03/17 12:37:16;;;;;;;8.00;3.05;;;;;;;;;;5072555;28;20049;-85
2022/03/17 12:39:43;;;;;;;9.57;2.50;;;;;;;;;;5067894;28;20189;-84
2022/03/17 12:42:14;;;;;;;9.20;2.50;;;;;;;;;;5042676;28;20036;-84
2022/03/17 12:44:53;;;;;;;6.82;2.50;;;;;;;;;;5070093;28;20053;-84
2022/03/17 12:47:20;;;;;;;7.85;2.83;;;;;;;;;;5066781;28;20044;-85
2022/03/17 12:49:47;;;;;;;7.25;2.58;;;;;;;;;;5057235;28;20445;-84
2022/03/17 12:52:25;;;;;;;14.13;2.67;;;;;;;;;;5065378;28;20037;-86
2022/03/17 12:54:55;;;;;;;9.02;2.65;;;;;;;;;;5053428;28;20586;-86
2022/03/17 12:57:21;;;;;;;9.90;3.08;;;;;;;;;;5067691;28;20086;-85
2022/03/17 12:59:47;;;;;;;9.15;3.08;;;;;;;;;;5051576;28;20049;-86
2022/03/17 13:02:16;;;;;;;9.40;2.90;;;;;;;;;;5052218;28;20056;-86
2022/03/17 13:04:42;;;;;;;7.20;2.30;;;;;;;;;;5065693;28;20056;-85
2022/03/17 13:07:14;;;;;;;10.25;2.83;;;;;;;;;;5068327;28;20110;-85
2022/03/17 13:09:40;;;;;;;10.45;2.83;;;;;;;;;;5056696;28;20372;-85
2022/03/17 13:14:57;;;;;;;6.38;2.20;;;;;;;;;;5067294;28;20041;-85
2022/03/17 13:17:53;;;;;;;7.07;2.58;;;;;;;;;;5063903;28;20071;-86
2022/03/17 13:20:22;;;;;;;7.10;2.63;;;;;;;;;;5047503;28;20063;-87
2022/03/17 13:22:57;;;;;;;13.32;2.58;;;;;;;;;;5051732;28;20089;-85
2022/03/17 13:25:23;;;;;;;8.95;2.58;;;;;;;;;;5034246;28;20063;-86
2022/03/17 13:28:16;;;;;;;10.75;2.63;;;;;;;;;;5051244;28;20037;-85
2022/03/17 13:30:48;;;;;;;11.75;2.88;;;;;;;;;;5067803;28;20541;-85
2022/03/17 13:33:16;;;;;;;6.97;2.50;;;;;;;;;;5048764;28;20040;-86
2022/03/17 13:35:45;;;;;;;6.70;2.38;;;;;;;;;;5052758;28;20059;-86
2022/03/17 13:38:18;;;;;;;5.82;2.47;;;;;;;;;;5054056;28;20047;-86
2022/03/17 13:40:45;;;;;;;11.85;3.00;;;;;;;;;;5053020;28;20054;-85
2022/03/17 13:43:12;;;;;;;5.55;2.58;;;;;;;;;;5072587;28;20057;-85
2022/03/17 13:45:39;;;;;;;6.80;2.35;;;;;;;;;;5073655;28;20076;-83
2022/03/17 13:48:06;;;;;;;4.43;2.22;;;;;;;;;;5072929;28;20037;-86
2022/03/17 13:50:39;;;;;;;8.55;2.70;;;;;;;;;;5055039;28;20052;-84
2022/03/17 13:53:10;;;;;;;5.97;2.30;;;;;;;;;;5055164;28;20033;-85
2022/03/17 13:55:36;;;;;;;3.30;2.03;;;;;;;;;;5037544;28;20053;-85
2022/03/17 13:58:15;;;;;;;10.10;2.88;;;;;;;;;;5054508;28;20128;-86
2022/03/17 14:00:42;;;;;;;7.70;2.55;;;;;;;;;;5072436;28;20052;-87
2022/03/17 14:03:15;;;;;;;6.65;2.40;;;;;;;;;;5062473;28;20045;-87
2022/03/17 14:05:59;;;;;;;9.63;2.45;;;;;;;;;;5062368;28;20496;-86
2022/03/17 14:08:25;;;;;;;6.15;2.40;;;;;;;;;;5063229;28;20056;-86
2022/03/17 14:10:51;;;;;;;7.30;2.40;;;;;;;;;;5051462;28;20049;-86
2022/03/17 14:13:20;;;;;;;6.38;2.13;;;;;;;;;;5041273;28;20049;-87
2022/03/17 14:15:50;;;;;;;5.65;2.30;;;;;;;;;;5014629;28;20100;-85
2022/03/17 14:18:17;;;;;;;4.45;2.35;;;;;;;;;;5028351;28;20068;-86
2022/03/17 14:20:43;;;;;;;5.45;2.22;;;;;;;;;;5022267;28;20125;-86
2022/03/17 14:25:53;;;;;;;4.20;2.25;;;;;;;;;;5013985;28;20049;-86
2022/03/17 14:28:20;;;;;;;5.38;2.30;;;;;;;;;;5013969;28;20053;-86
2022/03/17 14:30:49;;;;;;;4.60;2.10;;;;;;;;;;5084864;23;20380;-86
2022/03/17 14:33:15;;;;;;;4.55;2.10;;;;;;;;;;5054192;28;20072;-86
2022/03/17 14:35:43;;;;;;;5.05;2.17;;;;;;;;;;5033956;28;20140;-84
2022/03/17 14:38:23;;;;;;;7.57;2.33;;;;;;;;;;5033985;28;20033;-84
2022/03/17 14:40:49;;;;;;;6.97;2.28;;;;;;;;;;5041768;28;20048;-84
2022/03/17 14:43:31;;;;;;;7.40;2.50;;;;;;;;;;5047098;28;20056;-84
2022/03/17 14:45:57;;;;;;;7.10;2.53;;;;;;;;;;5016095;28;20087;-84
2022/03/17 14:48:23;;;;;;;6.05;2.30;;;;;;;;;;5016219;28;20041;-85
2022/03/17 14:50:51;;;;;;;8.75;2.60;;;;;;;;;;5033912;28;20049;-84
2022/03/17 14:53:18;;;;;;;8.13;2.65;;;;;;;;;;5033442;28;20056;-84
2022/03/17 14:55:45;;;;;;;7.25;2.47;;;;;;;;;;5036979;28;20049;-84
2022/03/17 14:58:11;;;;;;;7.63;2.30;;;;;;;;;;5041438;28;20065;-83
2022/03/17 15:00:37;;;;;;;8.15;2.67;;;;;;;;;;5034637;28;20564;-84